createdAt,value
2024-05-09T00:03:25.813Z,0.06
2024-05-09T00:05:51.665Z,0
2024-05-09T00:08:04.344Z,0.01
2024-05-09T00:10:05.438Z,0
2024-05-09T00:17:38.249Z,0.01
2024-05-09T00:19:43.205Z,0
2024-05-09T00:21:35.133Z,0.01
2024-05-09T00:24:12.358Z,0
2024-05-09T00:28:47.491Z,0.01
2024-05-09T00:38:14.811Z,0
2024-05-09T00:40:22.375Z,0.01
2024-05-09T00:42:08.050Z,0
2024-05-09T00:44:43.892Z,0.01
2024-05-09T00:53:52.557Z,0
2024-05-09T00:56:20.374Z,0.01
2024-05-09T00:58:35.362Z,0
2024-05-09T01:03:24.423Z,0.01
2024-05-09T01:05:57.783Z,0
2024-05-09T01:29:14.850Z,0.01
2024-05-09T01:31:20.646Z,0
2024-05-09T01:33:13.543Z,0.01
2024-05-09T01:35:51.124Z,0
2024-05-09T01:40:33.222Z,0.01
2024-05-09T01:42:25.876Z,0
2024-05-09T01:47:40.322Z,0.01
2024-05-09T01:49:57.620Z,0
2024-05-09T02:05:41.041Z,0.01
2024-05-09T02:08:09.835Z,0
2024-05-09T02:16:51.139Z,0.01
2024-05-09T02:19:12.208Z,0
2024-05-09T02:25:55.599Z,0.01
2024-05-09T02:42:23.598Z,0.02
2024-05-09T02:46:55.939Z,0.03
2024-05-09T02:51:34.005Z,0.04
2024-05-09T02:53:33.478Z,0.06
2024-05-09T02:56:17.821Z,0.08
2024-05-09T02:58:49.297Z,0.12
2024-05-09T03:01:07.607Z,0.17
2024-05-09T03:03:13.875Z,0.24
2024-05-09T03:05:03.998Z,0.32
2024-05-09T03:07:41.046Z,0.45
2024-05-09T03:10:07.454Z,0.63
2024-05-09T03:12:15.631Z,0.83
2024-05-09T03:14:13.265Z,1.17
2024-05-09T03:16:56.088Z,1.76
2024-05-09T03:19:25.889Z,2.52
2024-05-09T03:21:42.483Z,3.54
2024-05-09T03:23:45.892Z,4.95
2024-05-09T03:25:36.084Z,6.48
2024-05-09T03:28:11.533Z,8.91
2024-05-09T03:30:36.555Z,12.96
2024-05-09T03:32:43.047Z,16.39
2024-05-09T03:34:39.055Z,20.56
2024-05-09T03:37:20.403Z,28.28
2024-05-09T03:39:48.480Z,38.02
2024-05-09T03:42:03.262Z,47.76
2024-05-09T03:44:05.115Z,56.68
2024-05-09T03:46:52.083Z,72.16
2024-05-09T03:49:25.901Z,90.24
2024-05-09T03:51:46.556Z,107.36
2024-05-09T03:53:53.446Z,126.44
2024-05-09T03:55:47.715Z,143.04
2024-05-09T03:58:27.334Z,170
2024-05-09T04:00:53.790Z,194
2024-05-09T04:03:08.453Z,220.2
2024-05-09T04:05:07.318Z,242.4
2024-05-09T04:07:52.678Z,277.2
2024-05-09T04:10:30.126Z,314
2024-05-09T04:12:44.434Z,345.6
2024-05-09T04:14:50.018Z,377.6
2024-05-09T04:16:43.131Z,403.5
2024-05-09T04:19:20.883Z,435.8
2024-05-09T04:21:45.953Z,476.8
2024-05-09T04:23:57.512Z,510.7
2024-05-09T04:25:55.998Z,537.9
2024-05-09T04:28:39.735Z,579.6
2024-05-09T04:31:10.270Z,615
2024-05-09T04:33:27.715Z,648.4
2024-05-09T04:35:31.912Z,680.6
2024-05-09T04:37:22.863Z,703
2024-05-09T04:39:59.098Z,736.6
2024-05-09T04:42:21.406Z,763.5
2024-05-09T04:44:31.430Z,791
2024-05-09T04:46:28.115Z,813.7
2024-05-09T04:49:10.001Z,847
2024-05-09T04:51:38.887Z,874.8
2024-05-09T04:53:54.528Z,902.4
2024-05-09T04:55:57.032Z,927.6
2024-05-09T04:57:46.399Z,944.6
2024-05-09T05:02:42.282Z,982.4
2024-05-09T05:04:50.354Z,1002.8
2024-05-09T05:09:25.568Z,1046.4
2024-05-09T05:11:52.651Z,1067.5
2024-05-09T05:14:07.037Z,1082.2
2024-05-09T05:16:07.519Z,1096
2024-05-09T05:18:53.708Z,1116.4
2024-05-09T05:21:26.743Z,1141.1
2024-05-09T05:23:46.490Z,1159.6
2024-05-09T05:25:53.413Z,1171.2
2024-05-09T05:27:46.712Z,1184
2024-05-09T05:30:28.639Z,1205.1
2024-05-09T05:32:50.288Z,1222.4
2024-05-09T05:35:02.369Z,1236.1
2024-05-09T05:39:45.931Z,1278
2024-05-09T05:42:17.205Z,1297.9
2024-05-09T05:44:35.420Z,1311.3
2024-05-09T05:46:40.441Z,1325.4
2024-05-09T05:48:32.275Z,1334.4
2024-05-09T05:51:09.255Z,1353.6
2024-05-09T05:53:33.493Z,1368.3
2024-05-09T05:55:43.904Z,1380.4
2024-05-09T06:00:29.495Z,1406
2024-05-09T06:02:54.073Z,1418.2
2024-05-09T06:05:15.429Z,1428.4
2024-05-09T06:07:13.716Z,1436.8
2024-05-09T06:09:03.923Z,1445.1
2024-05-09T06:11:39.387Z,1461.1
2024-05-09T06:14:01.712Z,1474.5
2024-05-09T06:16:10.743Z,1487.3
2024-05-09T06:18:06.187Z,1499.5
2024-05-09T06:20:47.000Z,1520
2024-05-09T06:23:14.897Z,1536.6
2024-05-09T06:25:29.586Z,1552.6
2024-05-09T06:30:25.586Z,1598
2024-05-09T06:32:52.216Z,1621.7
2024-05-09T06:35:12.636Z,1644
2024-05-09T06:37:20.098Z,1665
2024-05-09T06:39:14.402Z,1681
2024-05-09T06:41:53.878Z,1708
2024-05-09T06:44:20.318Z,1720
2024-05-09T06:46:33.475Z,1737
2024-05-09T06:48:33.544Z,1758
2024-05-09T06:51:18.771Z,1780
2024-05-09T06:53:50.900Z,1801
2024-05-09T06:56:09.741Z,1815
2024-05-09T06:58:15.360Z,1830
2024-05-09T07:00:08.315Z,1840
2024-05-09T07:02:46.324Z,1855
2024-05-09T07:05:10.387Z,1864
2024-05-09T07:07:21.205Z,1873
2024-05-09T07:09:19.391Z,1885
2024-05-09T07:12:02.894Z,1896
2024-05-09T07:14:34.500Z,1903
2024-05-09T07:16:50.585Z,1911
2024-05-09T07:18:54.490Z,1916
2024-05-09T07:20:45.365Z,1923
2024-05-09T07:23:21.465Z,1932
2024-05-09T07:29:55.437Z,1941
2024-05-09T07:32:19.422Z,1946
2024-05-09T07:34:30.215Z,1948
2024-05-09T07:36:27.610Z,1952
2024-05-09T07:39:10.410Z,1953
2024-05-09T07:41:43.035Z,1958
2024-05-09T07:43:56.516Z,1962
2024-05-09T07:46:09.821Z,1960
2024-05-09T07:48:31.925Z,1941
2024-05-09T07:53:21.451Z,1959
2024-05-09T07:54:56.378Z,1953
2024-05-09T07:56:52.308Z,1946
2024-05-09T07:59:36.051Z,1941
2024-05-09T08:02:01.239Z,1939
2024-05-09T08:04:16.331Z,1938
2024-05-09T08:06:17.558Z,1939
2024-05-09T08:09:07.819Z,1941
2024-05-09T08:11:38.480Z,1936
2024-05-09T08:13:58.944Z,1933
2024-05-09T08:16:06.303Z,1929
2024-05-09T08:18:00.828Z,1931
2024-05-09T08:20:40.043Z,1928
2024-05-09T08:23:06.175Z,1934
2024-05-09T08:25:19.447Z,1932
2024-05-09T08:27:19.403Z,1930
2024-05-09T08:30:04.840Z,1939
2024-05-09T08:32:36.624Z,1933
2024-05-09T08:34:55.587Z,1931
2024-05-09T08:38:53.924Z,1939
2024-05-09T08:41:31.772Z,1943
2024-05-09T08:43:55.815Z,1946
2024-05-09T08:46:07.353Z,1951
2024-05-09T08:48:06.362Z,1955
2024-05-09T08:50:49.357Z,1977
2024-05-09T08:53:19.736Z,1983
2024-05-09T08:55:39.381Z,1991
2024-05-09T08:57:41.324Z,2002
2024-05-09T08:59:32.268Z,2009
2024-05-09T09:02:08.751Z,2040
2024-05-09T09:04:31.865Z,2065
2024-05-09T09:06:41.698Z,2085
2024-05-09T09:08:38.543Z,2097
2024-05-09T09:11:20.614Z,2129
2024-05-09T09:13:49.290Z,2179
2024-05-09T09:16:04.949Z,2167
2024-05-09T09:18:10.623Z,2200
2024-05-09T09:19:57.018Z,2220
2024-05-09T09:22:31.588Z,2232
2024-05-09T09:24:53.111Z,2272
2024-05-09T09:27:01.451Z,2281
2024-05-09T09:28:56.530Z,2300
2024-05-09T09:31:36.319Z,2363
2024-05-09T09:34:03.576Z,2391
2024-05-09T09:36:17.536Z,2349
2024-05-09T09:38:18.573Z,2410
2024-05-09T09:41:04.850Z,2465
2024-05-09T09:43:37.726Z,2424
2024-05-09T09:45:57.477Z,2467
2024-05-09T09:48:04.278Z,2472
2024-05-09T09:49:57.631Z,2355
2024-05-09T09:52:36.280Z,2499
2024-05-09T09:55:01.965Z,2531
2024-05-09T09:59:13.444Z,2507
2024-05-09T10:01:58.007Z,2508
2024-05-09T10:04:29.163Z,2534
2024-05-09T10:08:52.006Z,2595
2024-05-09T10:10:44.148Z,2627
2024-05-09T10:13:21.126Z,2629
2024-05-09T10:15:44.660Z,2648
2024-05-09T10:17:55.575Z,2666
2024-05-09T10:19:52.607Z,2676
2024-05-09T10:22:35.060Z,2728
2024-05-09T10:25:05.030Z,2281
2024-05-09T10:29:24.437Z,2853
2024-05-09T10:31:14.775Z,2895
2024-05-09T10:33:50.736Z,2876
2024-05-09T10:36:12.052Z,1531.5
2024-05-09T10:38:21.032Z,1843
2024-05-09T10:40:22.817Z,3549
2024-05-09T10:42:58.055Z,3540
2024-05-09T10:45:25.854Z,3368
2024-05-09T10:47:40.819Z,2766
2024-05-09T10:49:42.349Z,3729
2024-05-09T10:52:29.056Z,2135
2024-05-09T10:55:04.902Z,3219
2024-05-09T10:59:30.741Z,3114
2024-05-09T11:01:25.113Z,2938
2024-05-09T11:04:04.597Z,3077
2024-05-09T11:06:30.782Z,2973
2024-05-09T11:08:43.179Z,2836
2024-05-09T11:10:43.254Z,2961
2024-05-09T11:13:28.191Z,3129
2024-05-09T11:16:00.226Z,3138
2024-05-09T11:18:20.970Z,3329
2024-05-09T11:20:29.179Z,2932
2024-05-09T11:22:17.134Z,2946
2024-05-09T11:24:54.881Z,2979
2024-05-09T11:29:30.744Z,3068
2024-05-09T11:31:29.117Z,3041
2024-05-09T11:34:12.643Z,3115
2024-05-09T11:36:42.774Z,2580
2024-05-09T11:38:59.692Z,3237
2024-05-09T11:41:03.715Z,3336
2024-05-09T11:42:54.640Z,3146
2024-05-09T11:45:30.518Z,3043
2024-05-09T11:47:53.485Z,3142
2024-05-09T11:50:05.815Z,3192
2024-05-09T11:51:59.681Z,3079
2024-05-09T11:54:41.403Z,3082
2024-05-09T11:59:24.752Z,1642
2024-05-09T12:01:27.851Z,1699
2024-05-09T12:03:16.668Z,1840
2024-05-09T12:05:50.744Z,3576
2024-05-09T12:08:11.892Z,4076
2024-05-09T12:10:22.615Z,3809
2024-05-09T12:12:14.881Z,2182
2024-05-09T12:14:54.935Z,2653
2024-05-09T12:17:21.982Z,3676
2024-05-09T12:19:36.038Z,3552
2024-05-09T12:21:36.427Z,2128
2024-05-09T12:24:22.295Z,3201
2024-05-09T12:26:55.000Z,3304
2024-05-09T12:29:14.530Z,1489.2
2024-05-09T12:31:20.906Z,2613
2024-05-09T12:33:14.420Z,1265.2
2024-05-09T12:35:52.699Z,1261.4
2024-05-09T12:38:18.010Z,1543
2024-05-09T12:40:33.786Z,2138
2024-05-09T12:42:30.600Z,3234
2024-05-09T12:45:12.887Z,2932
2024-05-09T12:47:43.980Z,3107
2024-05-09T12:50:01.935Z,3091
2024-05-09T12:52:06.635Z,3383
2024-05-09T12:53:58.333Z,3379
2024-05-09T12:56:35.083Z,3426
2024-05-09T12:58:58.771Z,3888
2024-05-09T13:01:09.321Z,3947
2024-05-09T13:03:06.891Z,4119
2024-05-09T13:05:49.345Z,4058
2024-05-09T13:08:18.594Z,3865
2024-05-09T13:10:34.953Z,3736
2024-05-09T13:12:38.011Z,3381
2024-05-09T13:14:27.930Z,1784
2024-05-09T13:17:03.085Z,2872
2024-05-09T13:19:25.059Z,1275.2
2024-05-09T13:21:33.904Z,1298.2
2024-05-09T13:23:29.776Z,2849
2024-05-09T13:26:10.664Z,1222.4
2024-05-09T13:28:38.362Z,1296.6
2024-05-09T13:30:52.950Z,2862
2024-05-09T13:32:54.074Z,2845
2024-05-09T13:35:41.273Z,2864
2024-05-09T13:38:13.903Z,2871
2024-05-09T13:40:35.616Z,2863
2024-05-09T13:42:41.489Z,2858
2024-05-09T13:44:35.437Z,2880
2024-05-09T13:47:14.764Z,2956
2024-05-09T13:49:40.913Z,3233
2024-05-09T13:51:53.745Z,3724
2024-05-09T13:53:53.578Z,4151
2024-05-09T13:56:38.482Z,4138
2024-05-09T13:59:10.192Z,3832
2024-05-09T14:01:28.738Z,3525
2024-05-09T14:03:34.337Z,2090
2024-05-09T14:05:26.597Z,3554
2024-05-09T14:08:03.900Z,2126
2024-05-09T14:10:30.693Z,1555.2
2024-05-09T14:12:39.797Z,2119
2024-05-09T14:14:37.713Z,2439
2024-05-09T14:17:21.008Z,1289.9
2024-05-09T14:19:51.184Z,2695
2024-05-09T14:22:07.823Z,1329.9
2024-05-09T14:24:11.267Z,2336
2024-05-09T14:26:02.023Z,1065.9
2024-05-09T14:28:37.829Z,1105.6
2024-05-09T14:31:00.547Z,2199
2024-05-09T14:35:06.674Z,2421
2024-05-09T14:37:48.134Z,2363
2024-05-09T14:40:25.865Z,2337
2024-05-09T14:42:32.563Z,2313
2024-05-09T14:44:34.406Z,2277
2024-05-09T14:46:23.642Z,2268
2024-05-09T14:48:57.895Z,2249
2024-05-09T14:51:18.917Z,2305
2024-05-09T14:53:26.851Z,2252
2024-05-09T14:55:21.718Z,2200
2024-05-09T14:58:01.782Z,2323
2024-05-09T15:00:29.464Z,2293
2024-05-09T15:02:42.254Z,2192
2024-05-09T15:04:42.983Z,1295.6
2024-05-09T15:07:28.608Z,2014
2024-05-09T15:10:00.768Z,1701
2024-05-09T15:12:20.164Z,2074
2024-05-09T15:14:26.416Z,2025
2024-05-09T15:16:19.820Z,2010
2024-05-09T15:21:23.084Z,1960
2024-05-09T15:23:35.147Z,2005
2024-05-09T15:25:34.157Z,2051
2024-05-09T15:28:18.645Z,1950
2024-05-09T15:30:49.092Z,2005
2024-05-09T15:33:07.726Z,2182
2024-05-09T15:35:11.736Z,2359
2024-05-09T15:37:03.234Z,2379
2024-05-09T15:39:40.160Z,2327
2024-05-09T15:42:03.698Z,2415
2024-05-09T15:44:13.875Z,2155
2024-05-09T15:46:11.292Z,2030
2024-05-09T15:51:22.970Z,1623.6
2024-05-09T15:53:38.956Z,1608.3
2024-05-09T15:55:42.347Z,1580.1
2024-05-09T15:57:31.367Z,1602.5
2024-05-09T16:00:09.811Z,1616
2024-05-09T16:02:28.315Z,1499.5
2024-05-09T16:04:37.058Z,1436.1
2024-05-09T16:06:32.593Z,1371.5
2024-05-09T16:11:41.119Z,1307.8
2024-05-09T16:13:55.632Z,1296.3
2024-05-09T16:15:57.204Z,1270.7
2024-05-09T16:21:17.057Z,1201.2
2024-05-09T16:23:37.203Z,1176.6
2024-05-09T16:25:44.403Z,1157.1
2024-05-09T16:27:38.346Z,1146.5
2024-05-09T16:30:21.170Z,1101.1
2024-05-09T16:32:43.589Z,1076.4
2024-05-09T16:34:56.455Z,1053.1
2024-05-09T16:36:56.128Z,1040
2024-05-09T16:39:41.167Z,1017.2
2024-05-09T16:42:12.846Z,1001.2
2024-05-09T16:44:33.028Z,984
2024-05-09T16:46:36.323Z,968
2024-05-09T16:48:28.637Z,957.1
2024-05-09T16:51:06.071Z,936.9
2024-05-09T16:53:30.320Z,921.9
2024-05-09T16:55:41.602Z,910.4
2024-05-09T16:57:39.752Z,898.2
2024-05-09T17:00:30.154Z,880.6
2024-05-09T17:02:53.172Z,865.2
2024-05-09T17:05:10.284Z,848.3
2024-05-09T17:07:14.095Z,835.2
2024-05-09T17:09:08.044Z,824.9
2024-05-09T17:11:40.870Z,806
2024-05-09T17:13:47.381Z,794.8
2024-05-09T17:15:37.786Z,785.6
2024-05-09T17:18:14.282Z,770.8
2024-05-09T17:20:38.276Z,757.1
2024-05-09T17:22:48.784Z,741.7
2024-05-09T17:24:46.710Z,727.6
2024-05-09T17:27:29.066Z,709.7
2024-05-09T17:29:58.605Z,696.9
2024-05-09T17:32:15.056Z,684.4
2024-05-09T17:34:17.889Z,671.3
2024-05-09T17:36:07.966Z,659.5
2024-05-09T17:38:43.192Z,644.6
2024-05-09T17:41:05.329Z,630.4
2024-05-09T17:43:14.396Z,617.2
2024-05-09T17:45:10.233Z,607
2024-05-09T17:47:51.306Z,590.2
2024-05-09T17:50:23.847Z,570.7
2024-05-09T17:52:33.954Z,556.3
2024-05-09T17:54:35.552Z,548.4
2024-05-09T17:57:22.378Z,522.7
2024-05-09T17:59:56.094Z,499.8
2024-05-09T18:02:16.930Z,484.1
2024-05-09T18:04:23.803Z,464.8
2024-05-09T18:06:17.969Z,444.6
2024-05-09T18:08:57.375Z,409.6
2024-05-09T18:11:23.557Z,376.6
2024-05-09T18:13:36.759Z,343.8
2024-05-09T18:15:36.907Z,319.5
2024-05-09T18:18:21.851Z,286.2
2024-05-09T18:20:54.036Z,254.3
2024-05-09T18:23:12.273Z,233.9
2024-05-09T18:25:17.970Z,216.3
2024-05-09T18:27:10.633Z,202.8
2024-05-09T18:29:48.410Z,186.1
2024-05-09T18:32:13.105Z,166.9
2024-05-09T18:34:24.493Z,154.44
2024-05-09T18:36:22.826Z,139.96
2024-05-09T18:41:36.830Z,112.4
2024-05-09T18:43:54.231Z,101.2
2024-05-09T18:45:58.549Z,90.56
2024-05-09T18:47:49.402Z,82.48
2024-05-09T18:50:28.928Z,71.14
2024-05-09T18:52:48.891Z,62.2
2024-05-09T18:54:58.847Z,53.7
2024-05-09T18:56:55.693Z,47.44
2024-05-09T18:59:37.820Z,38.75
2024-05-09T19:02:06.755Z,32.16
2024-05-09T19:04:22.554Z,26.26
2024-05-09T19:06:25.087Z,20.96
2024-05-09T19:08:14.252Z,17.29
2024-05-09T19:10:48.266Z,13.38
2024-05-09T19:13:11.606Z,9.64
2024-05-09T19:15:17.896Z,7.69
2024-05-09T19:17:12.950Z,6.07
2024-05-09T19:19:53.455Z,4.01
2024-05-09T19:22:20.691Z,2.61
2024-05-09T19:24:34.671Z,1.84
2024-05-09T19:26:35.571Z,1.39
2024-05-09T19:29:21.559Z,0.92
2024-05-09T19:31:54.401Z,0.6
2024-05-09T19:34:14.011Z,0.44
2024-05-09T19:36:20.571Z,0.35
2024-05-09T19:38:13.979Z,0.25
2024-05-09T19:40:52.624Z,0.18
2024-05-09T19:43:18.254Z,0.13
2024-05-09T19:45:30.644Z,0.1
2024-05-09T19:47:29.838Z,0.07
2024-05-09T19:50:19.460Z,0.05
2024-05-09T19:52:45.608Z,0.04
2024-05-09T19:57:08.485Z,0.03
2024-05-09T19:58:59.789Z,0.02
2024-05-09T20:06:11.051Z,0.01
2024-05-09T21:01:46.352Z,0.02
2024-05-09T21:04:16.360Z,0.01
2024-05-09T21:08:41.011Z,0.07
2024-05-09T21:10:34.082Z,0.01
2024-05-09T22:49:30.462Z,0.06
2024-05-09T22:51:27.988Z,0.01
2024-05-09T23:49:53.764Z,0
2024-05-09T23:51:59.582Z,0.01
